sensor_id;sensor_type;location;lat;lon;timestamp;pressure;altitude;pressure_sealevel;temperature;humidity
11268;BME280;49397;47.474;9.416;2022-09-06T00:00:24;95644.19;;;17.88;74.58
11268;BME280;49397;47.474;9.416;2022-09-06T00:02:50;95652.41;;;17.88;74.06
11268;BME280;49397;47.474;9.416;2022-09-06T00:05:16;95646.22;;;17.91;72.29
11268;BME280;49397;47.474;9.416;2022-09-06T00:07:41;95649.59;;;18.00;72.83
11268;BME280;49397;47.474;9.416;2022-09-06T00:10:08;95646.09;;;18.16;71.21
11268;BME280;49397;47.474;9.416;2022-09-06T00:12:34;95658.56;;;18.13;72.35
11268;BME280;49397;47.474;9.416;2022-09-06T00:15:01;95659.34;;;17.98;73.02
11268;BME280;49397;47.474;9.416;2022-09-06T00:17:26;95660.94;;;17.99;72.59
11268;BME280;49397;47.474;9.416;2022-09-06T00:19:51;95660.84;;;17.95;73.32
11268;BME280;49397;47.474;9.416;2022-09-06T00:22:17;95653.41;;;17.96;72.46
11268;BME280;49397;47.474;9.416;2022-09-06T00:24:42;95652.53;;;18.07;70.78
11268;BME280;49397;47.474;9.416;2022-09-06T00:27:08;95646.19;;;18.19;70.15
11268;BME280;49397;47.474;9.416;2022-09-06T00:29:34;95649.19;;;18.30;70.55
11268;BME280;49397;47.474;9.416;2022-09-06T00:31:59;95657.34;;;18.26;70.67
11268;BME280;49397;47.474;9.416;2022-09-06T00:34:26;95658.50;;;18.25;70.55
11268;BME280;49397;47.474;9.416;2022-09-06T00:36:52;95659.34;;;18.13;70.06
11268;BME280;49397;47.474;9.416;2022-09-06T00:39:17;95660.16;;;18.14;71.28
11268;BME280;49397;47.474;9.416;2022-09-06T00:41:43;95672.00;;;18.02;72.40
11268;BME280;49397;47.474;9.416;2022-09-06T00:44:08;95665.91;;;17.93;73.61
11268;BME280;49397;47.474;9.416;2022-09-06T00:46:35;95668.06;;;17.88;74.08
11268;BME280;49397;47.474;9.416;2022-09-06T00:49:06;95670.19;;;17.79;74.77
11268;BME280;49397;47.474;9.416;2022-09-06T00:51:34;95671.03;;;17.67;75.17
11268;BME280;49397;47.474;9.416;2022-09-06T00:54:04;95677.22;;;17.64;75.22
11268;BME280;49397;47.474;9.416;2022-09-06T00:56:33;95678.03;;;17.65;73.78
11268;BME280;49397;47.474;9.416;2022-09-06T00:58:59;95684.34;;;17.65;74.38
11268;BME280;49397;47.474;9.416;2022-09-06T01:01:26;95673.72;;;17.64;74.80
11268;BME280;49397;47.474;9.416;2022-09-06T01:03:52;95684.91;;;17.59;74.34
11268;BME280;49397;47.474;9.416;2022-09-06T01:20:14;95689.13;;;17.68;75.05
11268;BME280;49397;47.474;9.416;2022-09-06T01:28:39;95692.50;;;17.38;81.38
11268;BME280;49397;47.474;9.416;2022-09-06T01:36:41;95680.38;;;17.39;81.87
11268;BME280;49397;47.474;9.416;2022-09-06T01:39:20;95684.16;;;17.46;84.51
11268;BME280;49397;47.474;9.416;2022-09-06T01:41:47;95680.19;;;17.32;83.99
11268;BME280;49397;47.474;9.416;2022-09-06T01:44:13;95681.81;;;17.09;84.89
11268;BME280;49397;47.474;9.416;2022-09-06T01:46:44;95682.63;;;17.09;86.19
11268;BME280;49397;47.474;9.416;2022-09-06T02:00:16;95675.22;;;17.37;85.96
11268;BME280;49397;47.474;9.416;2022-09-06T02:02:53;95677.09;;;17.33;86.97
11268;BME280;49397;47.474;9.416;2022-09-06T02:05:28;95673.28;;;17.38;87.82
11268;BME280;49397;47.474;9.416;2022-09-06T02:11:00;95658.63;;;17.58;83.76
11268;BME280;49397;47.474;9.416;2022-09-06T02:13:30;95657.31;;;17.67;82.79
11268;BME280;49397;47.474;9.416;2022-09-06T02:16:01;95653.63;;;17.75;84.50
11268;BME280;49397;47.474;9.416;2022-09-06T02:18:31;95661.09;;;17.75;85.80
11268;BME280;49397;47.474;9.416;2022-09-06T02:20:58;95661.31;;;17.70;85.97
11268;BME280;49397;47.474;9.416;2022-09-06T02:23:30;95652.75;;;17.71;85.77
11268;BME280;49397;47.474;9.416;2022-09-06T02:26:04;95661.47;;;17.61;86.34
11268;BME280;49397;47.474;9.416;2022-09-06T02:28:29;95674.06;;;17.62;87.54
11268;BME280;49397;47.474;9.416;2022-09-06T02:30:58;95664.91;;;17.58;88.92
11268;BME280;49397;47.474;9.416;2022-09-06T02:33:29;95674.38;;;17.61;88.78
11268;BME280;49397;47.474;9.416;2022-09-06T02:35:55;95678.16;;;17.56;89.60
11268;BME280;49397;47.474;9.416;2022-09-06T02:38:26;95709.97;;;17.57;87.79
11268;BME280;49397;47.474;9.416;2022-09-06T02:40:53;95778.00;;;17.16;86.98
11268;BME280;49397;47.474;9.416;2022-09-06T02:43:20;95797.19;;;17.04;94.42
11268;BME280;49397;47.474;9.416;2022-09-06T02:45:46;95745.03;;;16.88;96.65
11268;BME280;49397;47.474;9.416;2022-09-06T02:48:11;95757.91;;;17.12;97.05
11268;BME280;49397;47.474;9.416;2022-09-06T02:50:36;95784.97;;;17.01;97.98
11268;BME280;49397;47.474;9.416;2022-09-06T02:53:11;95771.25;;;17.01;98.64
11268;BME280;49397;47.474;9.416;2022-09-06T02:55:38;95752.28;;;16.96;95.33
11268;BME280;49397;47.474;9.416;2022-09-06T02:58:06;95750.03;;;16.98;95.73
11268;BME280;49397;47.474;9.416;2022-09-06T03:00:32;95755.97;;;16.88;94.67
11268;BME280;49397;47.474;9.416;2022-09-06T03:02:58;95744.69;;;16.90;97.58
11268;BME280;49397;47.474;9.416;2022-09-06T03:05:25;95764.88;;;16.97;93.93
11268;BME280;49397;47.474;9.416;2022-09-06T03:07:51;95750.13;;;17.02;92.64
11268;BME280;49397;47.474;9.416;2022-09-06T03:10:18;95740.69;;;16.99;94.59
11268;BME280;49397;47.474;9.416;2022-09-06T03:12:44;95754.94;;;17.05;91.82
11268;BME280;49397;47.474;9.416;2022-09-06T03:15:12;95765.91;;;16.93;93.34
11268;BME280;49397;47.474;9.416;2022-09-06T03:17:38;95764.84;;;16.85;95.28
11268;BME280;49397;47.474;9.416;2022-09-06T03:20:05;95767.59;;;16.85;92.94
11268;BME280;49397;47.474;9.416;2022-09-06T03:22:31;95751.50;;;16.84;93.43
11268;BME280;49397;47.474;9.416;2022-09-06T03:24:56;95742.50;;;16.95;90.17
11268;BME280;49397;47.474;9.416;2022-09-06T03:27:22;95722.38;;;17.03;90.04
11268;BME280;49397;47.474;9.416;2022-09-06T03:29:48;95707.97;;;17.06;90.07
11268;BME280;49397;47.474;9.416;2022-09-06T03:32:14;95720.44;;;17.04;90.79
11268;BME280;49397;47.474;9.416;2022-09-06T03:34:39;95704.81;;;16.80;94.25
11268;BME280;49397;47.474;9.416;2022-09-06T03:37:05;95705.25;;;16.82;94.63
11268;BME280;49397;47.474;9.416;2022-09-06T03:39:30;95701.25;;;16.92;93.53
11268;BME280;49397;47.474;9.416;2022-09-06T03:41:56;95682.88;;;16.92;91.80
11268;BME280;49397;47.474;9.416;2022-09-06T03:44:21;95673.75;;;16.88;93.69
11268;BME280;49397;47.474;9.416;2022-09-06T03:46:47;95667.53;;;17.15;87.78
11268;BME280;49397;47.474;9.416;2022-09-06T03:49:12;95674.50;;;17.13;89.79
11268;BME280;49397;47.474;9.416;2022-09-06T03:51:38;95672.00;;;17.08;90.04
11268;BME280;49397;47.474;9.416;2022-09-06T03:54:03;95667.09;;;17.13;87.35
11268;BME280;49397;47.474;9.416;2022-09-06T03:56:29;95665.81;;;17.23;87.93
11268;BME280;49397;47.474;9.416;2022-09-06T03:58:54;95669.84;;;17.41;85.90
11268;BME280;49397;47.474;9.416;2022-09-06T04:01:20;95678.66;;;17.34;86.46
11268;BME280;49397;47.474;9.416;2022-09-06T04:03:45;95698.22;;;17.33;86.83
11268;BME280;49397;47.474;9.416;2022-09-06T04:06:11;95711.97;;;17.21;91.35
11268;BME280;49397;47.474;9.416;2022-09-06T04:08:37;95726.97;;;16.87;93.61
11268;BME280;49397;47.474;9.416;2022-09-06T04:11:03;95677.41;;;16.92;90.74
11268;BME280;49397;47.474;9.416;2022-09-06T04:13:30;95672.69;;;17.05;89.88
11268;BME280;49397;47.474;9.416;2022-09-06T04:15:57;95679.56;;;16.99;92.05
11268;BME280;49397;47.474;9.416;2022-09-06T04:18:23;95683.00;;;16.96;90.33
11268;BME280;49397;47.474;9.416;2022-09-06T04:20:50;95691.78;;;16.89;93.82
11268;BME280;49397;47.474;9.416;2022-09-06T04:23:17;95710.06;;;16.85;93.76
11268;BME280;49397;47.474;9.416;2022-09-06T04:25:47;95788.28;;;16.95;93.13
11268;BME280;49397;47.474;9.416;2022-09-06T04:28:13;95795.81;;;16.86;92.40
11268;BME280;49397;47.474;9.416;2022-09-06T04:30:39;95795.94;;;16.89;93.90
11268;BME280;49397;47.474;9.416;2022-09-06T04:33:04;95788.84;;;17.00;90.60
11268;BME280;49397;47.474;9.416;2022-09-06T04:35:30;95784.97;;;17.01;90.89
11268;BME280;49397;47.474;9.416;2022-09-06T04:37:59;95775.38;;;16.95;92.44
11268;BME280;49397;47.474;9.416;2022-09-06T04:40:25;95787.50;;;16.94;91.06
11268;BME280;49397;47.474;9.416;2022-09-06T04:42:51;95771.06;;;16.94;91.92
11268;BME280;49397;47.474;9.416;2022-09-06T04:45:16;95762.81;;;16.94;92.57
11268;BME280;49397;47.474;9.416;2022-09-06T04:47:42;95744.06;;;16.96;92.02
11268;BME280;49397;47.474;9.416;2022-09-06T04:50:07;95737.81;;;16.96;91.97
11268;BME280;49397;47.474;9.416;2022-09-06T04:52:33;95736.06;;;17.15;91.95
11268;BME280;49397;47.474;9.416;2022-09-06T04:54:58;95721.56;;;17.03;92.44
11268;BME280;49397;47.474;9.416;2022-09-06T04:57:24;95713.59;;;17.10;90.24
11268;BME280;49397;47.474;9.416;2022-09-06T04:59:49;95714.03;;;17.12;89.18
11268;BME280;49397;47.474;9.416;2022-09-06T05:02:15;95747.50;;;17.17;90.10
11268;BME280;49397;47.474;9.416;2022-09-06T05:04:40;95740.44;;;16.92;92.69
11268;BME280;49397;47.474;9.416;2022-09-06T05:07:07;95730.03;;;16.98;92.73
11268;BME280;49397;47.474;9.416;2022-09-06T05:09:33;95721.59;;;16.91;92.07
11268;BME280;49397;47.474;9.416;2022-09-06T05:11:59;95710.25;;;17.16;90.54
11268;BME280;49397;47.474;9.416;2022-09-06T05:14:26;95706.94;;;17.23;90.22
11268;BME280;49397;47.474;9.416;2022-09-06T05:16:52;95703.75;;;17.21;89.85
11268;BME280;49397;47.474;9.416;2022-09-06T05:19:19;95699.06;;;17.21;89.20
11268;BME280;49397;47.474;9.416;2022-09-06T05:21:44;95706.13;;;17.22;89.32
11268;BME280;49397;47.474;9.416;2022-09-06T05:24:10;95711.66;;;17.10;91.30
11268;BME280;49397;47.474;9.416;2022-09-06T05:26:35;95719.88;;;16.86;93.51
11268;BME280;49397;47.474;9.416;2022-09-06T05:29:01;95729.00;;;16.90;93.81
11268;BME280;49397;47.474;9.416;2022-09-06T05:31:29;95724.56;;;16.86;95.44
11268;BME280;49397;47.474;9.416;2022-09-06T05:33:55;95723.31;;;16.95;93.79
11268;BME280;49397;47.474;9.416;2022-09-06T05:36:23;95723.84;;;17.13;92.08
11268;BME280;49397;47.474;9.416;2022-09-06T05:38:49;95719.03;;;17.22;91.13
11268;BME280;49397;47.474;9.416;2022-09-06T05:41:15;95710.69;;;17.30;88.25
11268;BME280;49397;47.474;9.416;2022-09-06T05:43:41;95708.16;;;17.49;85.39
11268;BME280;49397;47.474;9.416;2022-09-06T05:46:07;95716.03;;;17.39;87.28
11268;BME280;49397;47.474;9.416;2022-09-06T05:48:32;95713.22;;;17.23;91.61
11268;BME280;49397;47.474;9.416;2022-09-06T05:51:05;95723.84;;;17.13;92.01
11268;BME280;49397;47.474;9.416;2022-09-06T05:53:36;95728.41;;;17.09;92.07
11268;BME280;49397;47.474;9.416;2022-09-06T05:56:03;95721.94;;;17.13;91.79
11268;BME280;49397;47.474;9.416;2022-09-06T05:58:29;95721.00;;;17.21;90.68
11268;BME280;49397;47.474;9.416;2022-09-06T06:01:15;95712.75;;;17.33;90.06
11268;BME280;49397;47.474;9.416;2022-09-06T06:03:42;95715.25;;;17.38;86.40
11268;BME280;49397;47.474;9.416;2022-09-06T06:06:07;95729.19;;;17.45;87.36
11268;BME280;49397;47.474;9.416;2022-09-06T06:08:34;95728.94;;;17.62;84.62
11268;BME280;49397;47.474;9.416;2022-09-06T06:11:00;95727.66;;;17.60;84.97
11268;BME280;49397;47.474;9.416;2022-09-06T06:13:27;95724.34;;;17.66;84.65
11268;BME280;49397;47.474;9.416;2022-09-06T06:15:54;95717.69;;;17.67;85.32
11268;BME280;49397;47.474;9.416;2022-09-06T06:18:20;95722.22;;;17.75;84.18
11268;BME280;49397;47.474;9.416;2022-09-06T06:20:45;95727.34;;;17.89;83.82
11268;BME280;49397;47.474;9.416;2022-09-06T06:23:13;95713.91;;;17.99;81.35
11268;BME280;49397;47.474;9.416;2022-09-06T06:25:39;95721.91;;;18.20;81.49
11268;BME280;49397;47.474;9.416;2022-09-06T06:28:04;95718.16;;;18.40;78.63
11268;BME280;49397;47.474;9.416;2022-09-06T06:30:29;95716.22;;;18.56;80.31
11268;BME280;49397;47.474;9.416;2022-09-06T06:32:55;95734.31;;;18.57;78.53
11268;BME280;49397;47.474;9.416;2022-09-06T06:35:22;95721.91;;;18.79;75.94
11268;BME280;49397;47.474;9.416;2022-09-06T06:37:48;95719.31;;;18.86;78.49
11268;BME280;49397;47.474;9.416;2022-09-06T06:40:13;95713.75;;;18.82;77.92
11268;BME280;49397;47.474;9.416;2022-09-06T06:42:39;95718.53;;;18.85;77.30
11268;BME280;49397;47.474;9.416;2022-09-06T06:45:05;95725.16;;;19.00;76.74
11268;BME280;49397;47.474;9.416;2022-09-06T06:47:31;95724.25;;;19.11;74.38
11268;BME280;49397;47.474;9.416;2022-09-06T06:49:57;95720.19;;;19.05;74.40
11268;BME280;49397;47.474;9.416;2022-09-06T06:52:22;95731.44;;;19.00;74.21
11268;BME280;49397;47.474;9.416;2022-09-06T06:54:48;95727.66;;;18.89;75.57
11268;BME280;49397;47.474;9.416;2022-09-06T06:57:14;95734.41;;;18.92;76.33
11268;BME280;49397;47.474;9.416;2022-09-06T06:59:39;95729.69;;;18.92;76.12
11268;BME280;49397;47.474;9.416;2022-09-06T07:02:05;95727.91;;;19.00;74.18
11268;BME280;49397;47.474;9.416;2022-09-06T07:04:31;95731.28;;;19.09;75.66
11268;BME280;49397;47.474;9.416;2022-09-06T07:06:57;95729.72;;;19.27;73.29
11268;BME280;49397;47.474;9.416;2022-09-06T07:09:23;95735.50;;;19.37;72.75
11268;BME280;49397;47.474;9.416;2022-09-06T07:11:48;95723.31;;;19.38;72.36
11268;BME280;49397;47.474;9.416;2022-09-06T07:14:17;95746.22;;;19.27;75.27
11268;BME280;49397;47.474;9.416;2022-09-06T07:16:43;95746.50;;;19.22;73.72
11268;BME280;49397;47.474;9.416;2022-09-06T07:19:08;95740.56;;;19.20;75.35
11268;BME280;49397;47.474;9.416;2022-09-06T07:21:34;95738.09;;;19.30;74.03
11268;BME280;49397;47.474;9.416;2022-09-06T07:24:00;95736.13;;;19.31;76.02
11268;BME280;49397;47.474;9.416;2022-09-06T07:26:28;95730.31;;;19.51;76.29
11268;BME280;49397;47.474;9.416;2022-09-06T07:28:58;95723.38;;;19.77;73.84
11268;BME280;49397;47.474;9.416;2022-09-06T07:31:25;95714.53;;;19.87;73.04
11268;BME280;49397;47.474;9.416;2022-09-06T07:33:51;95717.34;;;20.09;72.24
11268;BME280;49397;47.474;9.416;2022-09-06T07:36:17;95709.97;;;20.32;72.18
11268;BME280;49397;47.474;9.416;2022-09-06T07:38:46;95709.78;;;20.44;69.65
11268;BME280;49397;47.474;9.416;2022-09-06T07:41:13;95699.56;;;20.67;66.94
11268;BME280;49397;47.474;9.416;2022-09-06T07:43:38;95704.13;;;20.82;66.39
11268;BME280;49397;47.474;9.416;2022-09-06T07:46:09;95700.75;;;20.92;70.36
11268;BME280;49397;47.474;9.416;2022-09-06T07:48:37;95698.78;;;21.16;68.76
11268;BME280;49397;47.474;9.416;2022-09-06T07:51:06;95697.34;;;21.25;67.26
11268;BME280;49397;47.474;9.416;2022-09-06T07:53:33;95693.63;;;21.40;67.69
11268;BME280;49397;47.474;9.416;2022-09-06T07:55:59;95696.97;;;21.53;65.09
11268;BME280;49397;47.474;9.416;2022-09-06T07:58:26;95692.38;;;21.64;63.13
11268;BME280;49397;47.474;9.416;2022-09-06T08:00:52;95697.69;;;21.76;61.92
11268;BME280;49397;47.474;9.416;2022-09-06T08:03:17;95698.56;;;21.83;66.79
11268;BME280;49397;47.474;9.416;2022-09-06T08:05:43;95699.09;;;21.92;68.20
11268;BME280;49397;47.474;9.416;2022-09-06T08:08:08;95700.47;;;22.09;64.12
11268;BME280;49397;47.474;9.416;2022-09-06T08:10:34;95698.28;;;22.25;62.17
11268;BME280;49397;47.474;9.416;2022-09-06T08:12:59;95690.47;;;22.34;62.09
11268;BME280;49397;47.474;9.416;2022-09-06T08:15:25;95692.22;;;22.49;62.97
11268;BME280;49397;47.474;9.416;2022-09-06T08:17:54;95698.66;;;22.60;59.96
11268;BME280;49397;47.474;9.416;2022-09-06T08:20:19;95702.31;;;22.71;62.56
11268;BME280;49397;47.474;9.416;2022-09-06T08:22:45;95697.25;;;22.80;62.93
11268;BME280;49397;47.474;9.416;2022-09-06T08:25:10;95692.16;;;22.82;61.57
11268;BME280;49397;47.474;9.416;2022-09-06T08:27:36;95699.34;;;22.90;65.11
11268;BME280;49397;47.474;9.416;2022-09-06T08:30:01;95700.16;;;22.94;61.68
11268;BME280;49397;47.474;9.416;2022-09-06T08:32:27;95701.47;;;23.11;60.42
11268;BME280;49397;47.474;9.416;2022-09-06T08:34:52;95703.59;;;23.28;58.58
11268;BME280;49397;47.474;9.416;2022-09-06T08:37:18;95701.72;;;23.42;63.59
11268;BME280;49397;47.474;9.416;2022-09-06T08:39:43;95698.81;;;23.25;62.17
11268;BME280;49397;47.474;9.416;2022-09-06T08:42:10;95687.50;;;22.93;63.07
11268;BME280;49397;47.474;9.416;2022-09-06T08:44:48;95704.28;;;22.71;66.92
11268;BME280;49397;47.474;9.416;2022-09-06T08:47:19;95711.44;;;22.75;69.83
11268;BME280;49397;47.474;9.416;2022-09-06T08:49:54;95704.84;;;22.87;67.14
11268;BME280;49397;47.474;9.416;2022-09-06T08:52:48;95709.13;;;23.28;64.56
11268;BME280;49397;47.474;9.416;2022-09-06T09:00:07;95719.50;;;24.10;66.01
11268;BME280;49397;47.474;9.416;2022-09-06T09:02:53;95722.31;;;24.20;60.49
11268;BME280;49397;47.474;9.416;2022-09-06T09:05:24;95713.97;;;24.10;60.98
11268;BME280;49397;47.474;9.416;2022-09-06T09:10:41;95728.50;;;23.89;68.29
11268;BME280;49397;47.474;9.416;2022-09-06T09:13:08;95731.56;;;23.70;62.32
11268;BME280;49397;47.474;9.416;2022-09-06T09:15:40;95730.34;;;23.64;64.18
11268;BME280;49397;47.474;9.416;2022-09-06T09:18:05;95731.88;;;23.54;63.25
11268;BME280;49397;47.474;9.416;2022-09-06T09:20:31;95719.88;;;23.36;65.78
11268;BME280;49397;47.474;9.416;2022-09-06T09:22:56;95738.88;;;23.41;67.73
11268;BME280;49397;47.474;9.416;2022-09-06T09:25:22;95742.41;;;23.31;69.38
11268;BME280;49397;47.474;9.416;2022-09-06T09:27:51;95742.25;;;23.17;68.96
11268;BME280;49397;47.474;9.416;2022-09-06T09:30:25;95740.91;;;23.01;71.36
11268;BME280;49397;47.474;9.416;2022-09-06T09:32:51;95747.91;;;22.88;74.95
11268;BME280;49397;47.474;9.416;2022-09-06T09:35:32;95748.59;;;22.74;76.24
11268;BME280;49397;47.474;9.416;2022-09-06T09:38:01;95750.78;;;22.58;77.50
11268;BME280;49397;47.474;9.416;2022-09-06T09:40:38;95761.72;;;22.51;77.09
11268;BME280;49397;47.474;9.416;2022-09-06T09:43:22;95751.75;;;22.43;74.94
11268;BME280;49397;47.474;9.416;2022-09-06T09:46:11;95756.06;;;22.37;76.53
11268;BME280;49397;47.474;9.416;2022-09-06T09:48:39;95752.88;;;22.35;77.86
11268;BME280;49397;47.474;9.416;2022-09-06T09:51:23;95756.75;;;22.30;81.18
11268;BME280;49397;47.474;9.416;2022-09-06T09:53:51;95755.06;;;22.19;83.74
11268;BME280;49397;47.474;9.416;2022-09-06T09:58:59;95740.88;;;21.91;79.52
11268;BME280;49397;47.474;9.416;2022-09-06T10:01:28;95739.22;;;21.83;83.72
11268;BME280;49397;47.474;9.416;2022-09-06T10:04:10;95733.25;;;21.81;82.55
11268;BME280;49397;47.474;9.416;2022-09-06T10:06:36;95728.66;;;21.62;77.04
11268;BME280;49397;47.474;9.416;2022-09-06T10:09:19;95736.00;;;21.51;79.58
11268;BME280;49397;47.474;9.416;2022-09-06T10:11:57;95728.34;;;21.41;80.36
11268;BME280;49397;47.474;9.416;2022-09-06T10:14:44;95725.31;;;21.24;80.51
11268;BME280;49397;47.474;9.416;2022-09-06T10:19:50;95726.06;;;21.21;84.59
11268;BME280;49397;47.474;9.416;2022-09-06T10:22:25;95723.94;;;21.11;83.63
11268;BME280;49397;47.474;9.416;2022-09-06T10:27:26;95708.91;;;21.08;85.27
11268;BME280;49397;47.474;9.416;2022-09-06T10:30:04;95695.50;;;21.07;84.22
11268;BME280;49397;47.474;9.416;2022-09-06T10:35:24;95698.72;;;21.12;84.25
11268;BME280;49397;47.474;9.416;2022-09-06T10:41:04;95702.59;;;21.08;88.22
11268;BME280;49397;47.474;9.416;2022-09-06T10:43:56;95697.13;;;21.11;87.65
11268;BME280;49397;47.474;9.416;2022-09-06T10:46:25;95698.03;;;21.19;89.35
11268;BME280;49397;47.474;9.416;2022-09-06T10:48:51;95706.84;;;21.28;89.68
11268;BME280;49397;47.474;9.416;2022-09-06T10:51:39;95701.50;;;21.38;88.48
11268;BME280;49397;47.474;9.416;2022-09-06T10:54:11;95700.19;;;21.58;89.47
11268;BME280;49397;47.474;9.416;2022-09-06T10:56:47;95698.41;;;21.73;87.31
11268;BME280;49397;47.474;9.416;2022-09-06T10:59:32;95704.00;;;21.76;85.75
11268;BME280;49397;47.474;9.416;2022-09-06T11:04:47;95693.94;;;22.27;85.02
11268;BME280;49397;47.474;9.416;2022-09-06T11:09:47;95691.09;;;23.01;81.75
11268;BME280;49397;47.474;9.416;2022-09-06T11:14:50;95698.06;;;22.84;80.75
11268;BME280;49397;47.474;9.416;2022-09-06T11:17:32;95697.66;;;22.79;79.58
11268;BME280;49397;47.474;9.416;2022-09-06T11:20:03;95686.28;;;22.91;78.88
11268;BME280;49397;47.474;9.416;2022-09-06T11:28:00;95687.03;;;23.31;79.83
11268;BME280;49397;47.474;9.416;2022-09-06T11:30:28;95684.88;;;23.11;79.32
11268;BME280;49397;47.474;9.416;2022-09-06T11:33:24;95682.06;;;23.07;80.52
11268;BME280;49397;47.474;9.416;2022-09-06T11:35:51;95678.56;;;23.14;75.20
11268;BME280;49397;47.474;9.416;2022-09-06T11:38:23;95667.75;;;22.95;74.10
11268;BME280;49397;47.474;9.416;2022-09-06T11:41:03;95671.34;;;23.02;75.19
11268;BME280;49397;47.474;9.416;2022-09-06T11:46:07;95669.28;;;22.92;73.75
11268;BME280;49397;47.474;9.416;2022-09-06T11:48:42;95676.91;;;23.06;74.81
11268;BME280;49397;47.474;9.416;2022-09-06T11:51:30;95650.25;;;23.38;77.52
11268;BME280;49397;47.474;9.416;2022-09-06T11:58:58;95658.41;;;23.81;71.88
11268;BME280;49397;47.474;9.416;2022-09-06T12:06:25;95644.34;;;24.36;66.15
11268;BME280;49397;47.474;9.416;2022-09-06T12:08:54;95645.13;;;24.40;68.81
11268;BME280;49397;47.474;9.416;2022-09-06T12:14:06;95641.78;;;23.85;66.30
11268;BME280;49397;47.474;9.416;2022-09-06T12:24:59;95638.59;;;23.79;73.38
11268;BME280;49397;47.474;9.416;2022-09-06T12:30:04;95636.19;;;23.67;73.53
11268;BME280;49397;47.474;9.416;2022-09-06T12:32:37;95633.78;;;23.62;73.74
11268;BME280;49397;47.474;9.416;2022-09-06T12:35:10;95634.13;;;23.50;75.30
11268;BME280;49397;47.474;9.416;2022-09-06T12:37:58;95634.03;;;23.36;78.73
11268;BME280;49397;47.474;9.416;2022-09-06T12:40:36;95632.09;;;23.40;78.38
11268;BME280;49397;47.474;9.416;2022-09-06T12:43:08;95618.53;;;23.25;78.87
11268;BME280;49397;47.474;9.416;2022-09-06T12:45:34;95631.66;;;23.31;79.33
11268;BME280;49397;47.474;9.416;2022-09-06T12:48:11;95619.59;;;23.10;78.42
11268;BME280;49397;47.474;9.416;2022-09-06T12:50:38;95628.25;;;23.05;79.94
11268;BME280;49397;47.474;9.416;2022-09-06T12:53:17;95627.00;;;22.92;81.70
11268;BME280;49397;47.474;9.416;2022-09-06T12:55:47;95625.78;;;22.86;81.09
11268;BME280;49397;47.474;9.416;2022-09-06T12:58:12;95615.47;;;22.79;81.46
11268;BME280;49397;47.474;9.416;2022-09-06T13:00:43;95609.81;;;22.65;81.62
11268;BME280;49397;47.474;9.416;2022-09-06T13:03:22;95614.44;;;22.54;81.91
11268;BME280;49397;47.474;9.416;2022-09-06T13:05:50;95607.94;;;22.36;82.04
11268;BME280;49397;47.474;9.416;2022-09-06T13:08:23;95606.75;;;22.33;83.26
11268;BME280;49397;47.474;9.416;2022-09-06T13:10:50;95603.09;;;22.26;86.35
11268;BME280;49397;47.474;9.416;2022-09-06T13:13:22;95605.09;;;22.29;84.70
11268;BME280;49397;47.474;9.416;2022-09-06T13:15:48;95607.06;;;22.25;84.60
11268;BME280;49397;47.474;9.416;2022-09-06T13:18:34;95612.63;;;22.28;87.70
11268;BME280;49397;47.474;9.416;2022-09-06T13:21:06;95605.50;;;22.27;82.42
11268;BME280;49397;47.474;9.416;2022-09-06T13:23:41;95613.41;;;22.29;84.45
11268;BME280;49397;47.474;9.416;2022-09-06T13:26:07;95606.69;;;22.26;86.21
11268;BME280;49397;47.474;9.416;2022-09-06T13:28:33;95605.84;;;22.22;85.20
11268;BME280;49397;47.474;9.416;2022-09-06T13:31:25;95616.13;;;22.22;83.52
11268;BME280;49397;47.474;9.416;2022-09-06T13:33:56;95623.56;;;22.18;82.89
11268;BME280;49397;47.474;9.416;2022-09-06T13:36:23;95622.75;;;22.14;80.78
11268;BME280;49397;47.474;9.416;2022-09-06T13:38:50;95627.84;;;22.12;79.73
11268;BME280;49397;47.474;9.416;2022-09-06T13:44:19;95636.19;;;22.15;77.84
11268;BME280;49397;47.474;9.416;2022-09-06T13:46:51;95627.66;;;22.31;77.18
11268;BME280;49397;47.474;9.416;2022-09-06T13:49:17;95622.66;;;22.47;75.94
11268;BME280;49397;47.474;9.416;2022-09-06T13:51:43;95627.16;;;22.59;75.12
11268;BME280;49397;47.474;9.416;2022-09-06T13:54:13;95620.44;;;22.60;75.63
11268;BME280;49397;47.474;9.416;2022-09-06T13:56:40;95623.44;;;22.44;75.93
11268;BME280;49397;47.474;9.416;2022-09-06T13:59:07;95624.34;;;22.55;74.96
11268;BME280;49397;47.474;9.416;2022-09-06T14:01:37;95631.84;;;22.55;75.91
11268;BME280;49397;47.474;9.416;2022-09-06T14:04:03;95617.56;;;22.49;74.94
11268;BME280;49397;47.474;9.416;2022-09-06T14:06:28;95618.66;;;22.41;75.79
11268;BME280;49397;47.474;9.416;2022-09-06T14:08:54;95610.38;;;22.41;77.27
11268;BME280;49397;47.474;9.416;2022-09-06T14:11:19;95605.63;;;22.41;76.07
11268;BME280;49397;47.474;9.416;2022-09-06T14:13:45;95602.19;;;22.52;76.37
11268;BME280;49397;47.474;9.416;2022-09-06T14:16:11;95597.84;;;22.54;76.86
11268;BME280;49397;47.474;9.416;2022-09-06T14:18:36;95597.00;;;22.50;77.44
11268;BME280;49397;47.474;9.416;2022-09-06T14:21:02;95595.47;;;22.53;76.25
11268;BME280;49397;47.474;9.416;2022-09-06T14:23:30;95585.53;;;22.48;77.91
11268;BME280;49397;47.474;9.416;2022-09-06T14:25:57;95582.34;;;22.42;77.73
11268;BME280;49397;47.474;9.416;2022-09-06T14:28:23;95584.56;;;22.26;79.23
11268;BME280;49397;47.474;9.416;2022-09-06T14:30:49;95588.34;;;22.11;79.56
11268;BME280;49397;47.474;9.416;2022-09-06T14:33:16;95585.97;;;22.06;78.58
11268;BME280;49397;47.474;9.416;2022-09-06T14:35:41;95585.41;;;21.90;79.97
11268;BME280;49397;47.474;9.416;2022-09-06T14:38:07;95593.72;;;21.94;79.20
11268;BME280;49397;47.474;9.416;2022-09-06T14:40:34;95599.56;;;21.85;81.12
11268;BME280;49397;47.474;9.416;2022-09-06T14:43:00;95601.28;;;21.67;77.18
11268;BME280;49397;47.474;9.416;2022-09-06T14:45:25;95616.31;;;21.70;78.16
11268;BME280;49397;47.474;9.416;2022-09-06T14:47:51;95594.44;;;21.58;77.63
11268;BME280;49397;47.474;9.416;2022-09-06T14:50:17;95605.56;;;21.61;78.21